Olympic National Park, WA

4:55 AM PST on February 13, 2016 (GMT -0800)
Lake Dawn | | Change Station
CLOSE
Current Station
Personal Weather Station
Location: Port Angeles, WA
Elevation: 1864 ft
Nearby Weather Stations
Active Advisory: Areal Flood Watch

Elev 1864 ft 48.04 °N, 123.43 °W | Updated 10 minutes ago

Overcast
Overcast
36.1 °F
Feels Like 36 °F
N
0.7
Wind Variable Wind from NW
Gusts 3.1 mph

Today
High -- | Low -- °F
--% Chance of Precip.
Yesterday
High -- | Low -- °F
Precip. -- in
Pressure 30.21 in
Visibility 10.0 miles
Clouds Clear
Windchill 36 °F
Dew Point 36 °F
Humidity 99%
Rainfall 0.09 in
Snow Depth Not available.
7:24 AM 5:32 PM
Waxing Crescent, 30% visible
METAR KCLM 131253Z AUTO 20004KT 10SM CLR 04/03 A3020 RMK AO2 SLP229 T00440028
Pressure 30.21 in
Visibility 10.0 miles
Clouds Clear
Windchill 36 °F
Dew Point 36 °F
Humidity 99%
Rainfall 0.09 in
Snow Depth Not available.
7:24 AM 5:32 PM
Waxing Crescent, 30% visible
METAR KCLM 131253Z AUTO 20004KT 10SM CLR 04/03 A3020 RMK AO2 SLP229 T00440028

10-Day Weather Forecast

Almanac

Astronomy

Feb. 13, 2016 Rise Set
Actual Time
Civil Twilight
Nautical Twilight
Astronomical Twilight
Moon
Length of Visible Light
Length of Day
Tomorrow will be .
, % of the Moon is Illuminated

Today's Extremes

State Highs State Lows

Community

WunderPhotos

Upload Photos

1,892,543 photos uploaded!

WunderBlog® & News

Nearby

Air Quality

  Air Quality AQ Index Pollutant
Not available.

Snow Depth

Station Depth Elevation

Earthquake Activity

City Distance Mag. Time & Date
Minimum magnitude displayed is 2.5.

Coastal Water Temperatures

Place Temperature

Stations

Nearby Weather Stations

Station Location Temp. Windchill Dew Point Humidity Wind Precip. Elev Updated Type
                   

Watches & Warnings

Areal Flood Watch
Issued: 4:21 AM PST Feb. 13, 2016 – National Weather Service

... Flood Watch remains in effect through Sunday morning...

The Flood Watch continues for

* a portion of northwest Washington... including the following
County... Mason.

* Through Sunday morning

* periods of heavy rain this afternoon and tonight will likely
drive the Skokomish River above the flood stage of 16.5 feet
late tonight. Rainfall amounts of 1.5 to 2 inches are forecast
for the eighteen hour period ending at 4 am PST Sunday. This
will be on top of previous rainfall from Friday and any rainfall
from this morning.

Precautionary/preparedness actions...

A Flood Watch means conditions are favorable for flooding but
flooding is not imminent or occurring. Monitor the latest forecasts
from the National Weather Service and be ready to act quickly if
flooding is observed or a warning is issued.